Brandon, Canada
Current Conditions -  °F | °C
As of 12:00 AM on Thursday 23 Oct 2014 (Local Time) from CYBR Reporting Station
Overcast Overcast  
Wind Chill: 54°   Ceiling: 3100
Heat Index: 54°   Visibility: 15mi
Dew Point: 46°   Wind: 14mph
Humidity: 77%   Direction: 280°W
Pressure: 29.75"   Gusts: NA
Location:  49.85°N, 99.96°W
Report Text: CYBR 230500Z 28012KT 15SM BKN031 OVC075 12/08 A2975 RMK SC5AC3 SLP083 DENSITY ALT 1400FT
Loading
Personal Weather Stations






























Interactive Weather Map
Tropical Storm Tracking
New forecast layout! Learn more

10-Day Weather Forecast

Advertisements
Track Severe Weather on mobile